Terminal Aerodrome Forecast
Issued by NWS

Home | Current Version | Previous Version | Text Only | Print | Product List | Glossary On
Versions: 1 2 3 4 5 6 7 8 9 10 11 12 13 14 15 16 17 18 19 20
000
FTUS46 KMFR 222328
TAFRBG
TAF
KRBG 222328Z 2300/2324 34007KT P6SM SCT025 OVC040
     FM230800 36005KT P6SM OVC015
     FM231800 36007KT P6SM SCT020 BKN040=

USA.gov is the U.S. government's official web portal to all federal, state and local government web resources and services.